createdAt,value
2022-11-29T00:01:31.608Z,95322.06
2022-11-29T00:04:00.843Z,95326.28
2022-11-29T00:06:29.904Z,95329.50
2022-11-29T00:08:59.045Z,95326.28
2022-11-29T00:11:29.044Z,95322.06
2022-11-29T00:13:56.303Z,95317.06
2022-11-29T00:16:23.368Z,95317.22
2022-11-29T00:18:50.543Z,95315.44
2022-11-29T00:21:19.063Z,95315.44
2022-11-29T00:23:46.143Z,95317.88
2022-11-29T00:26:13.203Z,95310.78
2022-11-29T00:28:40.363Z,95304.56
2022-11-29T00:31:15.226Z,95300.31
2022-11-29T00:33:42.464Z,95302.34
2022-11-29T00:36:10.243Z,95299.13
2022-11-29T00:38:39.244Z,95308.00
2022-11-29T00:41:06.769Z,95300.75
2022-11-29T00:43:34.365Z,95300.34
2022-11-29T00:46:02.580Z,95298.72
2022-11-29T00:48:30.304Z,95301.56
2022-11-29T00:50:57.404Z,95302.75
2022-11-29T00:53:25.185Z,95293.91
2022-11-29T00:55:54.463Z,95299.38
2022-11-29T00:58:22.304Z,95300.34
2022-11-29T01:00:49.989Z,95297.94
2022-11-29T01:03:17.675Z,95295.34
2022-11-29T01:05:45.515Z,95298.34
2022-11-29T01:08:13.336Z,95293.09
2022-11-29T01:10:40.576Z,95293.09
2022-11-29T01:13:09.589Z,95287.28
2022-11-29T01:15:36.888Z,95299.56
2022-11-29T01:18:04.155Z,95296.34
2022-11-29T01:20:31.198Z,95303.56
2022-11-29T01:22:58.895Z,95299.56
2022-11-29T01:25:26.235Z,95298.56
2022-11-29T01:30:39.710Z,95301.38
2022-11-29T01:33:06.978Z,95299.38
2022-11-29T01:35:34.092Z,95293.53
2022-11-29T01:38:01.191Z,95296.34
2022-11-29T01:40:28.290Z,95294.53
2022-11-29T01:42:55.317Z,95290.78
2022-11-29T01:45:25.601Z,95282.81
2022-11-29T01:47:58.141Z,95287.03
2022-11-29T01:50:25.561Z,95284.00
2022-11-29T01:52:52.861Z,95287.66
2022-11-29T01:55:20.480Z,95283.53
2022-11-29T02:00:32.481Z,95280.34
2022-11-29T02:03:08.541Z,95275.59
2022-11-29T02:05:39.580Z,95275.66
2022-11-29T02:08:09.703Z,95275.69
2022-11-29T02:10:53.000Z,95268.97
2022-11-29T02:13:33.601Z,95275.72
2022-11-29T02:16:10.149Z,95268.06
2022-11-29T02:18:50.651Z,95263.97
2022-11-29T02:21:35.197Z,95274.28
2022-11-29T02:24:35.177Z,95268.13
2022-11-29T02:27:41.838Z,95264.88
2022-11-29T02:30:37.019Z,95261.47
2022-11-29T02:33:37.540Z,95265.13
2022-11-29T02:36:30.336Z,95272.25
2022-11-29T02:39:24.758Z,95274.66
2022-11-29T02:42:13.957Z,95267.31
2022-11-29T02:45:07.538Z,95269.25
2022-11-29T02:47:52.977Z,95268.56
2022-11-29T02:50:37.800Z,95275.91
2022-11-29T02:53:15.897Z,95272.81
2022-11-29T02:55:55.537Z,95278.44
2022-11-29T02:58:31.259Z,95268.47
2022-11-29T03:01:08.170Z,95271.44
2022-11-29T03:03:43.672Z,95267.66
2022-11-29T03:06:23.543Z,95268.16
2022-11-29T03:09:01.399Z,95267.91
2022-11-29T03:11:39.493Z,95266.41
2022-11-29T03:14:17.533Z,95266.59
2022-11-29T03:16:59.285Z,95267.50
2022-11-29T03:19:46.962Z,95264.66
2022-11-29T03:22:31.661Z,95270.84
2022-11-29T03:25:08.147Z,95272.34
2022-11-29T03:27:42.495Z,95265.44
2022-11-29T03:30:13.395Z,95266.38
2022-11-29T03:32:51.056Z,95270.38
2022-11-29T03:35:29.755Z,95269.72
2022-11-29T03:38:09.552Z,95265.44
2022-11-29T03:40:49.411Z,95275.66
2022-11-29T03:43:22.371Z,95268.53
2022-11-29T03:45:57.671Z,95272.66
2022-11-29T03:48:34.138Z,95268.63
2022-11-29T03:51:08.438Z,95273.81
2022-11-29T03:53:47.699Z,95273.81
2022-11-29T03:56:30.299Z,95268.28
2022-11-29T03:59:11.324Z,95266.41
2022-11-29T04:02:02.719Z,95273.63
2022-11-29T04:05:04.637Z,95275.03
2022-11-29T04:07:47.836Z,95270.69
2022-11-29T04:10:48.380Z,95270.91
2022-11-29T04:13:37.499Z,95275.13
2022-11-29T04:16:45.432Z,95279.25
2022-11-29T04:19:40.722Z,95276.25
2022-11-29T04:22:28.384Z,95276.38
2022-11-29T04:25:39.882Z,95274.25
2022-11-29T04:28:39.662Z,95283.63
2022-11-29T04:31:22.079Z,95278.81
2022-11-29T04:34:24.521Z,95286.38
2022-11-29T04:37:20.120Z,95288.91
2022-11-29T04:40:23.063Z,95289.47
2022-11-29T04:43:15.180Z,95295.31
2022-11-29T04:46:17.929Z,95296.03
2022-11-29T04:49:17.365Z,95292.38
2022-11-29T04:52:15.479Z,95291.94
2022-11-29T04:54:52.220Z,95285.97
2022-11-29T04:57:32.999Z,95291.75
2022-11-29T05:00:06.486Z,95288.13
2022-11-29T05:02:43.459Z,95292.00
2022-11-29T05:05:24.931Z,95294.31
2022-11-29T05:08:06.093Z,95298.31
2022-11-29T05:10:44.052Z,95294.31
2022-11-29T05:13:31.753Z,95297.06
2022-11-29T05:16:21.390Z,95306.69
2022-11-29T05:19:19.022Z,95308.03
2022-11-29T05:22:02.281Z,95304.59
2022-11-29T05:24:47.153Z,95306.22
2022-11-29T05:27:23.381Z,95312.63
2022-11-29T05:29:59.503Z,95314.59
2022-11-29T05:32:36.382Z,95308.50
2022-11-29T05:35:36.562Z,95312.16
2022-11-29T05:38:19.083Z,95308.41
2022-11-29T05:41:02.814Z,95316.03
2022-11-29T05:43:54.438Z,95319.47
2022-11-29T05:46:31.011Z,95315.81
2022-11-29T05:49:15.619Z,95320.28
2022-11-29T05:51:53.818Z,95321.63
2022-11-29T05:54:31.417Z,95322.84
2022-11-29T05:57:12.068Z,95317.44
2022-11-29T05:59:41.270Z,95321.69
2022-11-29T06:02:28.362Z,95321.81
2022-11-29T06:05:09.836Z,95325.72
2022-11-29T06:07:45.725Z,95327.44
2022-11-29T06:10:16.471Z,95322.81
2022-11-29T06:12:56.599Z,95330.59
2022-11-29T06:15:58.016Z,95331.50
2022-11-29T06:18:46.398Z,95328.81
2022-11-29T06:21:29.673Z,95330.84
2022-11-29T06:24:25.556Z,95339.22
2022-11-29T06:27:26.993Z,95336.88
2022-11-29T06:30:03.687Z,95335.72
2022-11-29T06:32:39.767Z,95340.09
2022-11-29T06:35:19.970Z,95343.19
2022-11-29T06:37:53.955Z,95340.19
2022-11-29T06:40:22.122Z,95341.25
2022-11-29T06:42:49.200Z,95345.88
2022-11-29T06:45:17.364Z,95351.50
2022-11-29T06:47:51.010Z,95356.41
2022-11-29T06:50:33.715Z,95357.06
2022-11-29T06:53:15.071Z,95351.03
2022-11-29T06:55:54.631Z,95357.28
2022-11-29T06:58:44.629Z,95357.03
2022-11-29T07:01:23.728Z,95360.78
2022-11-29T07:04:10.856Z,95363.50
2022-11-29T07:06:38.610Z,95357.75
2022-11-29T07:09:14.069Z,95353.91
2022-11-29T07:11:42.050Z,95364.22
2022-11-29T07:14:10.249Z,95365.63
2022-11-29T07:16:50.186Z,95373.06
2022-11-29T07:19:32.085Z,95375.13
2022-11-29T07:22:08.188Z,95374.75
2022-11-29T07:24:57.211Z,95373.00
2022-11-29T07:27:33.449Z,95370.97
2022-11-29T07:30:12.848Z,95371.59
2022-11-29T07:33:00.294Z,95371.84
2022-11-29T07:35:38.173Z,95371.16
2022-11-29T07:38:16.867Z,95372.41
2022-11-29T07:40:57.288Z,95372.50
2022-11-29T07:43:40.548Z,95375.63
2022-11-29T07:46:07.616Z,95377.09
2022-11-29T07:48:34.719Z,95379.13
2022-11-29T07:51:02.241Z,95381.88
2022-11-29T07:53:29.339Z,95387.13
2022-11-29T07:55:58.801Z,95379.84
2022-11-29T07:58:26.041Z,95382.28
2022-11-29T08:00:53.401Z,95383.63
2022-11-29T08:03:20.536Z,95388.19
2022-11-29T08:05:48.516Z,95391.72
2022-11-29T08:08:16.097Z,95391.13
2022-11-29T08:10:44.592Z,95391.88
2022-11-29T08:13:13.835Z,95390.28
2022-11-29T08:15:44.996Z,95391.09
2022-11-29T08:18:12.437Z,95384.97
2022-11-29T08:20:39.499Z,95385.44
2022-11-29T08:23:06.695Z,95391.09
2022-11-29T08:25:33.779Z,95397.16
2022-11-29T08:28:04.817Z,95384.84
2022-11-29T08:30:33.623Z,95385.25
2022-11-29T08:33:00.766Z,95394.25
2022-11-29T08:35:28.907Z,95398.47
2022-11-29T08:37:56.014Z,95389.72
2022-11-29T08:40:23.517Z,95401.84
2022-11-29T08:42:50.621Z,95392.50
2022-11-29T08:45:17.838Z,95397.66
2022-11-29T08:47:46.342Z,95399.59
2022-11-29T08:50:18.199Z,95405.56
2022-11-29T08:52:48.164Z,95403.50
2022-11-29T08:55:15.457Z,95407.13
2022-11-29T08:57:43.013Z,95414.50
2022-11-29T09:00:12.535Z,95413.38
2022-11-29T09:02:40.658Z,95416.22
2022-11-29T09:05:11.262Z,95415.72
2022-11-29T09:07:39.387Z,95421.34
2022-11-29T09:10:08.875Z,95416.97
2022-11-29T09:12:37.274Z,95416.47
2022-11-29T09:15:05.786Z,95420.47
2022-11-29T09:17:33.188Z,95417.72
2022-11-29T09:20:00.453Z,95416.16
2022-11-29T09:22:29.199Z,95420.91
2022-11-29T09:24:56.270Z,95421.28
2022-11-29T09:27:23.523Z,95422.50
2022-11-29T09:29:52.086Z,95423.03
2022-11-29T09:32:19.144Z,95424.25
2022-11-29T09:34:46.488Z,95421.28
2022-11-29T09:37:13.847Z,95417.97
2022-11-29T09:39:42.376Z,95428.25
2022-11-29T09:42:35.867Z,95424.34
2022-11-29T09:45:09.688Z,95427.84
2022-11-29T09:48:06.725Z,95428.94
2022-11-29T09:50:35.949Z,95428.38
2022-11-29T09:53:22.465Z,95421.94
2022-11-29T09:56:02.749Z,95422.78
2022-11-29T09:58:37.885Z,95423.81
2022-11-29T10:01:10.357Z,95421.56
2022-11-29T10:03:44.062Z,95435.75
2022-11-29T10:06:21.579Z,95428.50
2022-11-29T10:08:57.161Z,95433.00
2022-11-29T10:11:33.017Z,95432.63
2022-11-29T10:14:11.186Z,95432.44
2022-11-29T10:16:47.007Z,95425.03
2022-11-29T10:19:27.867Z,95428.66
2022-11-29T10:22:02.768Z,95424.03
2022-11-29T10:24:33.445Z,95428.09
2022-11-29T10:27:03.131Z,95426.28
2022-11-29T10:29:30.366Z,95434.56
2022-11-29T10:31:58.785Z,95424.66
2022-11-29T10:34:28.405Z,95429.13
2022-11-29T10:36:58.366Z,95424.66
2022-11-29T10:39:37.725Z,95423.66
2022-11-29T10:42:15.307Z,95429.53
2022-11-29T10:44:42.726Z,95423.44
2022-11-29T10:47:11.171Z,95418.97
2022-11-29T10:49:38.747Z,95423.63
2022-11-29T10:52:06.066Z,95416.94
2022-11-29T10:54:40.134Z,95419.19
2022-11-29T10:57:14.765Z,95412.38
2022-11-29T10:59:59.605Z,95414.00
2022-11-29T11:02:27.025Z,95411.59
2022-11-29T11:04:54.810Z,95406.16
2022-11-29T11:07:25.537Z,95407.75
2022-11-29T11:09:56.812Z,95407.75
2022-11-29T11:12:29.525Z,95408.53
2022-11-29T11:15:15.829Z,95405.91
2022-11-29T11:17:56.414Z,95400.31
2022-11-29T11:20:25.670Z,95399.47
2022-11-29T11:22:59.389Z,95405.53
2022-11-29T11:25:31.419Z,95400.88
2022-11-29T11:28:14.547Z,95405.25
2022-11-29T11:30:52.414Z,95398.63
2022-11-29T11:33:25.287Z,95404.41
2022-11-29T11:36:08.729Z,95400.19
2022-11-29T11:38:40.087Z,95411.06
2022-11-29T11:41:19.049Z,95403.78
2022-11-29T11:43:59.131Z,95404.81
2022-11-29T11:46:48.821Z,95406.25
2022-11-29T11:49:29.569Z,95404.00
2022-11-29T11:51:58.528Z,95400.00
2022-11-29T11:54:26.568Z,95403.19
2022-11-29T11:56:53.953Z,95408.81
2022-11-29T11:59:26.753Z,95400.97
2022-11-29T12:01:53.913Z,95406.63
2022-11-29T12:04:27.992Z,95408.81
2022-11-29T12:06:59.933Z,95412.69
2022-11-29T12:09:35.334Z,95411.31
2022-11-29T12:12:13.962Z,95405.69
2022-11-29T12:14:54.721Z,95401.47
2022-11-29T12:17:31.888Z,95408.09
2022-11-29T12:20:15.273Z,95413.56
2022-11-29T12:22:59.188Z,95413.09
2022-11-29T12:25:34.375Z,95409.28
2022-11-29T12:28:01.694Z,95409.25
2022-11-29T12:30:33.375Z,95410.00
2022-11-29T12:33:22.549Z,95407.63
2022-11-29T12:36:10.887Z,95404.00
2022-11-29T12:38:55.979Z,95405.59
2022-11-29T12:41:37.086Z,95401.16
2022-11-29T12:44:20.312Z,95403.78
2022-11-29T12:47:34.222Z,95405.00
2022-11-29T12:49:59.119Z,95405.91
2022-11-29T12:52:35.378Z,95402.09
2022-11-29T12:55:17.716Z,95410.56
2022-11-29T12:57:56.799Z,95399.06
2022-11-29T13:00:29.252Z,95408.38
2022-11-29T13:03:08.602Z,95402.34
2022-11-29T13:05:49.212Z,95402.72
2022-11-29T13:08:37.495Z,95403.72
2022-11-29T13:11:17.194Z,95402.53
2022-11-29T13:13:50.033Z,95388.25
2022-11-29T13:16:35.150Z,95390.66
2022-11-29T13:19:11.317Z,95397.47
2022-11-29T13:21:49.349Z,95394.81
2022-11-29T13:24:25.776Z,95400.84
2022-11-29T13:26:55.431Z,95396.25
2022-11-29T13:29:23.298Z,95389.81
2022-11-29T13:31:51.875Z,95388.97
2022-11-29T13:34:30.456Z,95391.78
2022-11-29T13:37:07.994Z,95389.16
2022-11-29T13:39:58.562Z,95396.25
2022-11-29T13:42:39.075Z,95400.69
2022-11-29T13:45:21.216Z,95390.56
2022-11-29T13:47:49.275Z,95392.22
2022-11-29T13:50:39.675Z,95395.47
2022-11-29T13:53:14.974Z,95402.53
2022-11-29T13:55:51.275Z,95394.28
2022-11-29T13:58:39.367Z,95397.75
2022-11-29T14:01:09.715Z,95402.00
2022-11-29T14:03:39.599Z,95401.41
2022-11-29T14:06:16.276Z,95400.28
2022-11-29T14:09:30.585Z,95404.59
2022-11-29T14:12:17.973Z,95400.56
2022-11-29T14:14:52.495Z,95399.81
2022-11-29T14:17:45.553Z,95399.03
2022-11-29T14:20:52.039Z,95395.06
2022-11-29T14:23:36.933Z,95394.09
2022-11-29T14:26:29.919Z,95404.38
2022-11-29T14:28:58.636Z,95397.13
2022-11-29T14:31:48.675Z,95394.28
2022-11-29T14:34:48.031Z,95397.19
2022-11-29T14:37:44.593Z,95398.44
2022-11-29T14:40:27.584Z,95398.03
2022-11-29T14:42:55.185Z,95406.69
2022-11-29T14:45:26.971Z,95409.59
2022-11-29T14:47:55.267Z,95407.50
2022-11-29T14:50:33.581Z,95403.28
2022-11-29T14:53:02.603Z,95407.75
2022-11-29T14:55:35.725Z,95399.41
2022-11-29T14:58:20.701Z,95416.50
2022-11-29T15:01:10.632Z,95422.34
2022-11-29T15:03:47.508Z,95418.91
2022-11-29T15:06:28.161Z,95407.16
2022-11-29T15:09:02.978Z,95416.66
2022-11-29T15:11:50.458Z,95418.91
2022-11-29T15:14:31.167Z,95423.78
2022-11-29T15:17:14.481Z,95415.69
2022-11-29T15:20:03.291Z,95407.00
2022-11-29T15:22:48.148Z,95410.81
2022-11-29T15:25:20.582Z,95418.34
2022-11-29T15:27:54.677Z,95406.66
2022-11-29T15:30:29.842Z,95410.06
2022-11-29T15:32:58.281Z,95423.16
2022-11-29T15:35:25.806Z,95422.56
2022-11-29T15:37:54.883Z,95428.81
2022-11-29T15:40:24.690Z,95424.38
2022-11-29T15:43:00.865Z,95416.34
2022-11-29T15:45:31.909Z,95416.66
2022-11-29T15:48:14.221Z,95421.69
2022-11-29T15:50:49.262Z,95428.50
2022-11-29T15:53:23.622Z,95420.81
2022-11-29T15:55:55.201Z,95413.44
2022-11-29T15:58:24.923Z,95416.84
2022-11-29T16:00:54.762Z,95415.63
2022-11-29T16:03:28.443Z,95411.66
2022-11-29T16:06:03.829Z,95421.16
2022-11-29T16:08:40.381Z,95423.31
2022-11-29T16:11:16.121Z,95427.84
2022-11-29T16:14:14.046Z,95424.69
2022-11-29T16:16:44.943Z,95433.13
2022-11-29T16:19:24.823Z,95438.25
2022-11-29T16:22:13.181Z,95434.91
2022-11-29T16:24:46.809Z,95433.19
2022-11-29T16:27:15.304Z,95436.59
2022-11-29T16:29:46.002Z,95435.63
2022-11-29T16:32:20.542Z,95432.06
2022-11-29T16:34:48.021Z,95434.00
2022-11-29T16:37:20.221Z,95445.16
2022-11-29T16:39:51.083Z,95443.75
2022-11-29T16:42:25.270Z,95441.94
2022-11-29T16:45:26.433Z,95445.13
2022-11-29T16:47:54.382Z,95436.56
2022-11-29T16:50:22.507Z,95436.25
2022-11-29T16:52:56.056Z,95446.38
2022-11-29T16:55:24.047Z,95444.00
2022-11-29T16:57:51.303Z,95441.34
2022-11-29T17:00:32.383Z,95442.47
2022-11-29T17:03:00.499Z,95447.53
2022-11-29T17:05:27.861Z,95460.06
2022-11-29T17:07:55.593Z,95459.88
2022-11-29T17:10:24.924Z,95457.84
2022-11-29T17:12:52.642Z,95466.13
2022-11-29T17:15:19.880Z,95466.50
2022-11-29T17:17:56.167Z,95466.31
2022-11-29T17:20:23.782Z,95452.38
2022-11-29T17:22:50.981Z,95465.06
2022-11-29T17:25:18.384Z,95461.81
2022-11-29T17:27:51.582Z,95464.00
2022-11-29T17:30:19.622Z,95468.22
2022-11-29T17:32:47.183Z,95466.19
2022-11-29T17:35:15.961Z,95469.84
2022-11-29T17:37:43.482Z,95468.63
2022-11-29T17:40:15.541Z,95466.22
2022-11-29T17:42:44.181Z,95469.00
2022-11-29T17:45:11.642Z,95482.28
2022-11-29T17:47:40.400Z,95486.50
2022-11-29T17:50:08.481Z,95484.69
2022-11-29T17:52:42.182Z,95486.50
2022-11-29T17:55:10.484Z,95489.09
2022-11-29T17:57:37.762Z,95483.66
2022-11-29T18:00:06.301Z,95485.66
2022-11-29T18:02:33.581Z,95481.19
2022-11-29T18:05:01.121Z,95498.94
2022-11-29T18:07:28.305Z,95494.28
2022-11-29T18:09:56.963Z,95497.34
2022-11-29T18:12:26.524Z,95501.13
2022-11-29T18:14:54.160Z,95496.53
2022-11-29T18:17:21.403Z,95498.31
2022-11-29T18:19:49.099Z,95495.91
2022-11-29T18:22:16.249Z,95499.50
2022-11-29T18:24:43.401Z,95501.72
2022-11-29T18:27:11.910Z,95491.25
2022-11-29T18:29:39.443Z,95503.50
2022-11-29T18:32:06.723Z,95506.75
2022-11-29T18:34:33.973Z,95500.13
2022-11-29T18:37:01.252Z,95505.91
2022-11-29T18:39:28.902Z,95506.91
2022-11-29T18:41:56.381Z,95506.75
2022-11-29T18:44:24.960Z,95506.91
2022-11-29T18:46:52.061Z,95507.72
2022-11-29T18:49:19.282Z,95515.56
2022-11-29T18:51:48.321Z,95512.56
2022-11-29T18:54:17.921Z,95515.38
2022-11-29T18:56:46.625Z,95511.16
2022-11-29T18:59:16.010Z,95519.03
2022-11-29T19:01:47.105Z,95517.81
2022-11-29T19:04:16.641Z,95515.66
2022-11-29T19:06:44.823Z,95517.81
2022-11-29T19:09:15.244Z,95520.22
2022-11-29T19:11:42.613Z,95520.59
2022-11-29T19:14:12.104Z,95522.81
2022-11-29T19:16:42.424Z,95525.63
2022-11-29T19:19:13.244Z,95534.69
2022-11-29T19:21:41.433Z,95526.00
2022-11-29T19:24:13.104Z,95528.63
2022-11-29T19:26:44.753Z,95527.63
2022-11-29T19:29:13.504Z,95519.97
2022-11-29T19:31:41.175Z,95525.63
2022-11-29T19:34:12.303Z,95530.44
2022-11-29T19:36:40.644Z,95517.97
2022-11-29T19:39:11.749Z,95529.03
2022-11-29T19:41:39.041Z,95529.81
2022-11-29T19:44:09.508Z,95528.03
2022-11-29T19:46:40.196Z,95529.03
2022-11-29T19:49:10.803Z,95530.84
2022-11-29T19:51:38.603Z,95532.28
2022-11-29T19:54:08.381Z,95529.25
2022-11-29T19:56:51.432Z,95529.25
2022-11-29T19:59:18.520Z,95524.59
2022-11-29T20:01:45.728Z,95527.81
2022-11-29T20:04:16.788Z,95531.25
2022-11-29T20:06:44.585Z,95524.59
2022-11-29T20:09:14.083Z,95529.81
2022-11-29T20:11:41.180Z,95534.47
2022-11-29T20:14:11.042Z,95526.00
2022-11-29T20:16:38.864Z,95530.22
2022-11-29T20:19:09.901Z,95535.47
2022-11-29T20:21:43.151Z,95538.06
2022-11-29T20:24:11.200Z,95530.03
2022-11-29T20:26:40.101Z,95531.66
2022-11-29T20:29:08.642Z,95531.66
2022-11-29T20:31:37.820Z,95538.28
2022-11-29T20:34:06.506Z,95538.28
2022-11-29T20:36:47.581Z,95537.31
2022-11-29T20:39:31.280Z,95528.44
2022-11-29T20:42:20.122Z,95528.63
2022-11-29T20:44:53.841Z,95533.25
2022-11-29T20:47:24.563Z,95527.03
2022-11-29T20:49:52.135Z,95527.47
2022-11-29T20:52:34.003Z,95523.81
2022-11-29T20:55:01.159Z,95526.78
2022-11-29T20:57:28.380Z,95523.38
2022-11-29T20:59:55.542Z,95519.59
2022-11-29T21:02:23.582Z,95528.81
2022-11-29T21:04:51.520Z,95529.28
2022-11-29T21:07:20.096Z,95531.16
2022-11-29T21:09:47.326Z,95534.81
2022-11-29T21:12:15.631Z,95536.41
2022-11-29T21:14:43.599Z,95538.47
2022-11-29T21:17:11.541Z,95537.06
2022-11-29T21:19:39.751Z,95541.69
2022-11-29T21:22:18.983Z,95534.59
2022-11-29T21:25:02.862Z,95532.56
2022-11-29T21:27:33.243Z,95530.75
2022-11-29T21:30:01.943Z,95527.88
2022-11-29T21:32:30.761Z,95526.81
2022-11-29T21:34:58.421Z,95529.22
2022-11-29T21:37:29.322Z,95533.41
2022-11-29T21:39:58.286Z,95540.84
2022-11-29T21:42:25.362Z,95531.78
2022-11-29T21:44:52.484Z,95539.22
2022-11-29T21:47:19.846Z,95530.16
2022-11-29T21:49:47.003Z,95537.78
2022-11-29T21:52:17.799Z,95535.97
2022-11-29T21:54:49.431Z,95537.91
2022-11-29T21:57:18.181Z,95541.00
2022-11-29T21:59:45.329Z,95540.56
2022-11-29T22:02:12.651Z,95532.53
2022-11-29T22:04:39.842Z,95540.16
2022-11-29T22:07:06.845Z,95536.97
2022-11-29T22:09:34.064Z,95541.59
2022-11-29T22:12:10.344Z,95538.97
2022-11-29T22:14:48.464Z,95534.97
2022-11-29T22:17:15.903Z,95525.09
2022-11-29T22:19:43.020Z,95531.50
2022-11-29T22:22:10.181Z,95532.72
2022-11-29T22:24:37.842Z,95524.09
2022-11-29T22:27:04.981Z,95527.28
2022-11-29T22:29:32.023Z,95526.09
2022-11-29T22:32:00.640Z,95524.88
2022-11-29T22:34:27.945Z,95530.28
2022-11-29T22:36:55.122Z,95536.28
2022-11-29T22:39:22.242Z,95541.81
2022-11-29T22:41:53.862Z,95535.75
2022-11-29T22:44:22.756Z,95548.22
2022-11-29T22:46:51.010Z,95547.16
2022-11-29T22:49:19.523Z,95544.94
2022-11-29T22:51:47.382Z,95549.34
2022-11-29T22:54:14.581Z,95553.59
2022-11-29T22:56:43.622Z,95547.91
2022-11-29T22:59:11.144Z,95550.53
2022-11-29T23:01:40.836Z,95550.50
2022-11-29T23:04:10.237Z,95545.31
2022-11-29T23:06:43.519Z,95540.06
2022-11-29T23:09:13.059Z,95543.88
2022-11-29T23:11:40.217Z,95551.69
2022-11-29T23:14:07.303Z,95548.50
2022-11-29T23:16:34.629Z,95551.31
2022-11-29T23:19:02.813Z,95541.09
2022-11-29T23:21:31.699Z,95543.31
2022-11-29T23:24:00.718Z,95538.47
2022-11-29T23:26:30.347Z,95537.66
2022-11-29T23:28:58.809Z,95528.19
2022-11-29T23:31:26.476Z,95531.63
2022-11-29T23:33:54.217Z,95536.03
2022-11-29T23:36:21.597Z,95531.63
2022-11-29T23:38:50.737Z,95534.66
2022-11-29T23:41:20.416Z,95529.63
2022-11-29T23:43:49.305Z,95534.28
2022-11-29T23:46:19.134Z,95537.66
2022-11-29T23:48:46.497Z,95538.63
2022-11-29T23:51:14.178Z,95532.19
2022-11-29T23:53:41.656Z,95531.63
2022-11-29T23:56:13.857Z,95527.56
2022-11-29T23:58:43.399Z,95533.63
